sensor_id;sensor_type;location;lat;lon;timestamp;temperature;humidity
78896;HTU21D;68284;59.124;37.910;2023-06-10T00:00:47;8.24;65.36
78896;HTU21D;68284;59.124;37.910;2023-06-10T00:03:14;8.23;65.73
78896;HTU21D;68284;59.124;37.910;2023-06-10T00:05:40;8.22;65.79
78896;HTU21D;68284;59.124;37.910;2023-06-10T00:08:07;8.22;65.86
78896;HTU21D;68284;59.124;37.910;2023-06-10T00:10:37;8.22;66.01
78896;HTU21D;68284;59.124;37.910;2023-06-10T00:13:05;8.22;66.07
78896;HTU21D;68284;59.124;37.910;2023-06-10T00:15:34;8.24;66.17
78896;HTU21D;68284;59.124;37.910;2023-06-10T00:18:01;8.27;66.19
78896;HTU21D;68284;59.124;37.910;2023-06-10T00:20:28;8.29;66.24
78896;HTU21D;68284;59.124;37.910;2023-06-10T00:22:54;8.28;66.30
78896;HTU21D;68284;59.124;37.910;2023-06-10T00:25:20;8.28;66.46
78896;HTU21D;68284;59.124;37.910;2023-06-10T00:27:46;8.29;66.46
78896;HTU21D;68284;59.124;37.910;2023-06-10T00:30:13;8.27;66.53
78896;HTU21D;68284;59.124;37.910;2023-06-10T00:32:41;8.24;66.68
78896;HTU21D;68284;59.124;37.910;2023-06-10T00:35:07;8.24;66.75
78896;HTU21D;68284;59.124;37.910;2023-06-10T00:37:33;8.23;66.92
78896;HTU21D;68284;59.124;37.910;2023-06-10T00:40:03;8.21;67.01
78896;HTU21D;68284;59.124;37.910;2023-06-10T00:42:29;8.19;67.02
78896;HTU21D;68284;59.124;37.910;2023-06-10T00:44:55;8.18;67.12
78896;HTU21D;68284;59.124;37.910;2023-06-10T00:47:22;8.17;67.15
78896;HTU21D;68284;59.124;37.910;2023-06-10T00:49:49;8.17;67.15
78896;HTU21D;68284;59.124;37.910;2023-06-10T00:52:17;8.17;67.20
78896;HTU21D;68284;59.124;37.910;2023-06-10T00:54:45;8.15;67.27
78896;HTU21D;68284;59.124;37.910;2023-06-10T00:57:12;8.16;67.20
78896;HTU21D;68284;59.124;37.910;2023-06-10T00:59:48;8.15;67.28
78896;HTU21D;68284;59.124;37.910;2023-06-10T01:02:14;8.17;67.17
78896;HTU21D;68284;59.124;37.910;2023-06-10T01:04:40;8.17;67.11
78896;HTU21D;68284;59.124;37.910;2023-06-10T01:10:11;8.24;66.89
78896;HTU21D;68284;59.124;37.910;2023-06-10T01:12:49;8.27;66.58
78896;HTU21D;68284;59.124;37.910;2023-06-10T01:15:20;8.30;66.40
78896;HTU21D;68284;59.124;37.910;2023-06-10T01:18:01;8.31;66.40
78896;HTU21D;68284;59.124;37.910;2023-06-10T01:20:34;8.33;66.15
78896;HTU21D;68284;59.124;37.910;2023-06-10T01:23:01;8.33;66.11
78896;HTU21D;68284;59.124;37.910;2023-06-10T01:25:29;8.33;66.02
78896;HTU21D;68284;59.124;37.910;2023-06-10T01:30:36;8.30;65.91
78896;HTU21D;68284;59.124;37.910;2023-06-10T01:33:07;8.29;65.88
78896;HTU21D;68284;59.124;37.910;2023-06-10T01:35:37;8.27;65.89
78896;HTU21D;68284;59.124;37.910;2023-06-10T01:38:04;8.24;65.81
78896;HTU21D;68284;59.124;37.910;2023-06-10T01:40:32;8.24;65.75
78896;HTU21D;68284;59.124;37.910;2023-06-10T01:42:58;8.22;65.66
78896;HTU21D;68284;59.124;37.910;2023-06-10T01:45:24;8.22;65.61
78896;HTU21D;68284;59.124;37.910;2023-06-10T01:47:50;8.20;65.54
78896;HTU21D;68284;59.124;37.910;2023-06-10T01:50:16;8.18;65.53
78896;HTU21D;68284;59.124;37.910;2023-06-10T01:52:43;8.16;65.47
78896;HTU21D;68284;59.124;37.910;2023-06-10T01:55:09;8.15;65.36
78896;HTU21D;68284;59.124;37.910;2023-06-10T01:57:35;8.15;65.27
78896;HTU21D;68284;59.124;37.910;2023-06-10T02:00:01;8.13;65.19
78896;HTU21D;68284;59.124;37.910;2023-06-10T02:02:29;8.13;65.08
78896;HTU21D;68284;59.124;37.910;2023-06-10T02:04:55;8.11;65.01
78896;HTU21D;68284;59.124;37.910;2023-06-10T02:07:21;8.07;65.04
78896;HTU21D;68284;59.124;37.910;2023-06-10T02:09:48;8.06;65.07
78896;HTU21D;68284;59.124;37.910;2023-06-10T02:12:15;8.04;65.05
78896;HTU21D;68284;59.124;37.910;2023-06-10T02:14:41;8.05;64.95
78896;HTU21D;68284;59.124;37.910;2023-06-10T02:17:08;8.08;64.85
78896;HTU21D;68284;59.124;37.910;2023-06-10T02:19:38;8.12;64.77
78896;HTU21D;68284;59.124;37.910;2023-06-10T02:22:09;8.19;64.70
78896;HTU21D;68284;59.124;37.910;2023-06-10T02:24:36;8.26;64.50
78896;HTU21D;68284;59.124;37.910;2023-06-10T02:27:04;8.33;64.34
78896;HTU21D;68284;59.124;37.910;2023-06-10T02:29:34;8.41;64.12
78896;HTU21D;68284;59.124;37.910;2023-06-10T02:32:02;8.50;63.91
78896;HTU21D;68284;59.124;37.910;2023-06-10T02:34:29;8.58;63.67
78896;HTU21D;68284;59.124;37.910;2023-06-10T02:36:57;8.66;63.40
78896;HTU21D;68284;59.124;37.910;2023-06-10T02:39:23;8.79;63.16
78896;HTU21D;68284;59.124;37.910;2023-06-10T02:41:50;8.92;62.88
78896;HTU21D;68284;59.124;37.910;2023-06-10T02:44:18;9.02;62.61
78896;HTU21D;68284;59.124;37.910;2023-06-10T02:46:45;9.12;62.33
78896;HTU21D;68284;59.124;37.910;2023-06-10T02:49:13;9.23;62.08
78896;HTU21D;68284;59.124;37.910;2023-06-10T02:51:39;9.39;61.66
78896;HTU21D;68284;59.124;37.910;2023-06-10T02:54:06;9.55;61.19
78896;HTU21D;68284;59.124;37.910;2023-06-10T02:56:33;9.66;60.86
78896;HTU21D;68284;59.124;37.910;2023-06-10T02:59:02;9.78;60.47
78896;HTU21D;68284;59.124;37.910;2023-06-10T03:01:30;9.86;60.13
78896;HTU21D;68284;59.124;37.910;2023-06-10T03:04:07;9.94;59.61
78896;HTU21D;68284;59.124;37.910;2023-06-10T03:06:35;10.00;59.35
78896;HTU21D;68284;59.124;37.910;2023-06-10T03:09:22;10.03;59.11
78896;HTU21D;68284;59.124;37.910;2023-06-10T03:11:52;10.01;58.99
78896;HTU21D;68284;59.124;37.910;2023-06-10T03:14:18;10.03;58.77
78896;HTU21D;68284;59.124;37.910;2023-06-10T03:16:45;10.01;58.65
78896;HTU21D;68284;59.124;37.910;2023-06-10T03:19:12;10.04;58.38
78896;HTU21D;68284;59.124;37.910;2023-06-10T03:21:45;10.09;58.13
78896;HTU21D;68284;59.124;37.910;2023-06-10T03:24:16;10.13;57.84
78896;HTU21D;68284;59.124;37.910;2023-06-10T03:26:43;10.16;57.47
78896;HTU21D;68284;59.124;37.910;2023-06-10T03:29:09;10.18;57.34
78896;HTU21D;68284;59.124;37.910;2023-06-10T03:31:36;10.25;57.27
78896;HTU21D;68284;59.124;37.910;2023-06-10T03:34:05;10.36;57.03
78896;HTU21D;68284;59.124;37.910;2023-06-10T03:36:31;10.43;56.77
78896;HTU21D;68284;59.124;37.910;2023-06-10T03:38:57;10.52;56.39
78896;HTU21D;68284;59.124;37.910;2023-06-10T03:41:25;10.57;56.18
78896;HTU21D;68284;59.124;37.910;2023-06-10T03:43:52;10.60;56.04
78896;HTU21D;68284;59.124;37.910;2023-06-10T03:46:19;10.65;55.93
78896;HTU21D;68284;59.124;37.910;2023-06-10T03:48:45;10.68;55.84
78896;HTU21D;68284;59.124;37.910;2023-06-10T03:51:12;10.71;55.62
78896;HTU21D;68284;59.124;37.910;2023-06-10T03:53:38;10.77;55.62
78896;HTU21D;68284;59.124;37.910;2023-06-10T03:56:05;10.81;55.31
78896;HTU21D;68284;59.124;37.910;2023-06-10T03:58:31;10.82;54.97
78896;HTU21D;68284;59.124;37.910;2023-06-10T04:00:58;10.82;55.02
78896;HTU21D;68284;59.124;37.910;2023-06-10T04:03:31;10.84;54.91
78896;HTU21D;68284;59.124;37.910;2023-06-10T04:05:59;10.90;54.77
78896;HTU21D;68284;59.124;37.910;2023-06-10T04:08:26;10.92;54.66
78896;HTU21D;68284;59.124;37.910;2023-06-10T04:10:52;10.93;54.55
78896;HTU21D;68284;59.124;37.910;2023-06-10T04:13:21;10.88;54.42
78896;HTU21D;68284;59.124;37.910;2023-06-10T04:15:52;10.84;54.46
78896;HTU21D;68284;59.124;37.910;2023-06-10T04:18:20;10.81;54.49
78896;HTU21D;68284;59.124;37.910;2023-06-10T04:20:49;10.84;54.55
78896;HTU21D;68284;59.124;37.910;2023-06-10T04:23:18;10.89;54.53
78896;HTU21D;68284;59.124;37.910;2023-06-10T04:25:45;10.96;54.42
78896;HTU21D;68284;59.124;37.910;2023-06-10T04:28:13;11.04;54.34
78896;HTU21D;68284;59.124;37.910;2023-06-10T04:30:42;11.17;54.23
78896;HTU21D;68284;59.124;37.910;2023-06-10T04:33:08;11.23;54.17
78896;HTU21D;68284;59.124;37.910;2023-06-10T04:35:35;11.28;54.16
78896;HTU21D;68284;59.124;37.910;2023-06-10T04:38:04;11.30;54.17
78896;HTU21D;68284;59.124;37.910;2023-06-10T04:40:32;11.31;54.09
78896;HTU21D;68284;59.124;37.910;2023-06-10T04:42:58;11.36;53.97
78896;HTU21D;68284;59.124;37.910;2023-06-10T04:45:25;11.42;53.83
78896;HTU21D;68284;59.124;37.910;2023-06-10T04:47:51;11.47;53.70
78896;HTU21D;68284;59.124;37.910;2023-06-10T04:50:17;11.55;53.53
78896;HTU21D;68284;59.124;37.910;2023-06-10T04:52:43;11.68;53.43
78896;HTU21D;68284;59.124;37.910;2023-06-10T04:55:10;11.86;53.25
78896;HTU21D;68284;59.124;37.910;2023-06-10T04:57:36;12.05;52.98
78896;HTU21D;68284;59.124;37.910;2023-06-10T05:00:03;12.26;52.46
78896;HTU21D;68284;59.124;37.910;2023-06-10T05:02:34;12.46;52.01
78896;HTU21D;68284;59.124;37.910;2023-06-10T05:05:00;12.59;51.66
78896;HTU21D;68284;59.124;37.910;2023-06-10T05:07:26;12.63;51.53
78896;HTU21D;68284;59.124;37.910;2023-06-10T05:09:52;12.64;51.17
78896;HTU21D;68284;59.124;37.910;2023-06-10T05:12:19;12.58;51.26
78896;HTU21D;68284;59.124;37.910;2023-06-10T05:14:45;12.57;51.04
78896;HTU21D;68284;59.124;37.910;2023-06-10T05:17:12;12.59;50.65
78896;HTU21D;68284;59.124;37.910;2023-06-10T05:19:39;12.59;50.60
78896;HTU21D;68284;59.124;37.910;2023-06-10T05:22:06;12.66;50.67
78896;HTU21D;68284;59.124;37.910;2023-06-10T05:24:32;12.80;50.53
78896;HTU21D;68284;59.124;37.910;2023-06-10T05:26:59;12.91;50.30
78896;HTU21D;68284;59.124;37.910;2023-06-10T05:29:29;13.02;50.21
78896;HTU21D;68284;59.124;37.910;2023-06-10T05:31:55;13.09;49.88
78896;HTU21D;68284;59.124;37.910;2023-06-10T05:34:23;13.10;49.85
78896;HTU21D;68284;59.124;37.910;2023-06-10T05:36:49;13.08;49.81
78896;HTU21D;68284;59.124;37.910;2023-06-10T05:39:15;13.02;50.07
78896;HTU21D;68284;59.124;37.910;2023-06-10T05:41:41;13.04;50.08
78896;HTU21D;68284;59.124;37.910;2023-06-10T05:44:07;13.16;49.98
78896;HTU21D;68284;59.124;37.910;2023-06-10T05:46:36;13.25;49.59
78896;HTU21D;68284;59.124;37.910;2023-06-10T05:49:10;13.30;49.23
78896;HTU21D;68284;59.124;37.910;2023-06-10T05:51:42;13.34;48.58
78896;HTU21D;68284;59.124;37.910;2023-06-10T05:54:09;13.30;48.04
78896;HTU21D;68284;59.124;37.910;2023-06-10T05:56:37;13.29;47.78
78896;HTU21D;68284;59.124;37.910;2023-06-10T05:59:03;13.35;47.43
78896;HTU21D;68284;59.124;37.910;2023-06-10T06:01:35;13.36;47.14
78896;HTU21D;68284;59.124;37.910;2023-06-10T06:04:05;13.41;47.09
78896;HTU21D;68284;59.124;37.910;2023-06-10T06:06:41;13.45;47.09
78896;HTU21D;68284;59.124;37.910;2023-06-10T06:09:15;13.52;47.02
78896;HTU21D;68284;59.124;37.910;2023-06-10T06:11:41;13.61;46.80
78896;HTU21D;68284;59.124;37.910;2023-06-10T06:14:37;13.67;46.41
78896;HTU21D;68284;59.124;37.910;2023-06-10T06:17:08;13.74;45.69
78896;HTU21D;68284;59.124;37.910;2023-06-10T06:19:34;13.80;45.24
78896;HTU21D;68284;59.124;37.910;2023-06-10T06:22:03;13.91;45.04
78896;HTU21D;68284;59.124;37.910;2023-06-10T06:24:34;13.99;44.88
78896;HTU21D;68284;59.124;37.910;2023-06-10T06:27:15;14.10;44.86
78896;HTU21D;68284;59.124;37.910;2023-06-10T06:29:44;14.17;44.84
78896;HTU21D;68284;59.124;37.910;2023-06-10T06:32:15;14.21;44.74
78896;HTU21D;68284;59.124;37.910;2023-06-10T06:34:41;14.15;44.73
78896;HTU21D;68284;59.124;37.910;2023-06-10T06:37:07;14.06;44.69
78896;HTU21D;68284;59.124;37.910;2023-06-10T06:39:40;13.94;44.64
78896;HTU21D;68284;59.124;37.910;2023-06-10T06:42:13;13.76;44.80
78896;HTU21D;68284;59.124;37.910;2023-06-10T06:45:02;13.64;44.93
78896;HTU21D;68284;59.124;37.910;2023-06-10T06:47:28;13.70;44.74
78896;HTU21D;68284;59.124;37.910;2023-06-10T06:49:54;13.83;44.51
78896;HTU21D;68284;59.124;37.910;2023-06-10T06:52:22;14.06;44.40
78896;HTU21D;68284;59.124;37.910;2023-06-10T06:54:56;14.29;43.80
78896;HTU21D;68284;59.124;37.910;2023-06-10T06:57:31;14.52;43.35
78896;HTU21D;68284;59.124;37.910;2023-06-10T06:59:59;14.58;43.36
78896;HTU21D;68284;59.124;37.910;2023-06-10T07:02:28;14.51;43.46
78896;HTU21D;68284;59.124;37.910;2023-06-10T07:04:56;14.39;43.64
78896;HTU21D;68284;59.124;37.910;2023-06-10T07:07:22;14.24;43.42
78896;HTU21D;68284;59.124;37.910;2023-06-10T07:09:49;14.06;43.68
78896;HTU21D;68284;59.124;37.910;2023-06-10T07:12:16;13.92;43.67
78896;HTU21D;68284;59.124;37.910;2023-06-10T07:14:44;13.85;43.31
78896;HTU21D;68284;59.124;37.910;2023-06-10T07:17:10;13.91;43.26
78896;HTU21D;68284;59.124;37.910;2023-06-10T07:19:37;14.10;43.11
78896;HTU21D;68284;59.124;37.910;2023-06-10T07:22:09;14.40;43.00
78896;HTU21D;68284;59.124;37.910;2023-06-10T07:24:41;14.63;42.78
78896;HTU21D;68284;59.124;37.910;2023-06-10T07:27:12;14.72;41.90
78896;HTU21D;68284;59.124;37.910;2023-06-10T07:29:39;14.71;41.64
78896;HTU21D;68284;59.124;37.910;2023-06-10T07:32:11;14.67;41.84
78896;HTU21D;68284;59.124;37.910;2023-06-10T07:34:40;14.67;42.05
78896;HTU21D;68284;59.124;37.910;2023-06-10T07:37:06;14.73;42.06
78896;HTU21D;68284;59.124;37.910;2023-06-10T07:39:32;14.87;41.79
78896;HTU21D;68284;59.124;37.910;2023-06-10T07:41:59;15.07;41.21
78896;HTU21D;68284;59.124;37.910;2023-06-10T07:44:28;15.24;40.70
78896;HTU21D;68284;59.124;37.910;2023-06-10T07:46:56;15.29;40.59
78896;HTU21D;68284;59.124;37.910;2023-06-10T07:49:24;15.26;40.75
78896;HTU21D;68284;59.124;37.910;2023-06-10T07:51:54;15.16;41.16
78896;HTU21D;68284;59.124;37.910;2023-06-10T07:54:21;15.03;41.45
78896;HTU21D;68284;59.124;37.910;2023-06-10T07:56:47;14.88;41.80
78896;HTU21D;68284;59.124;37.910;2023-06-10T07:59:16;14.79;42.16
78896;HTU21D;68284;59.124;37.910;2023-06-10T08:01:42;14.87;42.19
78896;HTU21D;68284;59.124;37.910;2023-06-10T08:04:10;15.06;41.55
78896;HTU21D;68284;59.124;37.910;2023-06-10T08:06:37;15.27;40.55
78896;HTU21D;68284;59.124;37.910;2023-06-10T08:09:05;15.45;39.75
78896;HTU21D;68284;59.124;37.910;2023-06-10T08:11:37;15.49;39.28
78896;HTU21D;68284;59.124;37.910;2023-06-10T08:14:11;15.36;39.36
78896;HTU21D;68284;59.124;37.910;2023-06-10T08:16:37;15.21;39.67
78896;HTU21D;68284;59.124;37.910;2023-06-10T08:19:03;15.11;40.01
78896;HTU21D;68284;59.124;37.910;2023-06-10T08:21:31;15.09;40.30
78896;HTU21D;68284;59.124;37.910;2023-06-10T08:23:59;15.11;40.01
78896;HTU21D;68284;59.124;37.910;2023-06-10T08:26:25;15.22;39.61
78896;HTU21D;68284;59.124;37.910;2023-06-10T08:28:53;15.43;39.66
78896;HTU21D;68284;59.124;37.910;2023-06-10T08:31:23;15.66;39.36
78896;HTU21D;68284;59.124;37.910;2023-06-10T08:33:52;15.85;39.04
78896;HTU21D;68284;59.124;37.910;2023-06-10T08:36:18;15.88;38.81
78896;HTU21D;68284;59.124;37.910;2023-06-10T08:38:45;15.78;38.77
78896;HTU21D;68284;59.124;37.910;2023-06-10T08:41:12;15.70;39.07
78896;HTU21D;68284;59.124;37.910;2023-06-10T08:46:07;15.42;40.38
78896;HTU21D;68284;59.124;37.910;2023-06-10T08:48:34;15.32;40.30
78896;HTU21D;68284;59.124;37.910;2023-06-10T08:51:06;15.30;40.29
78896;HTU21D;68284;59.124;37.910;2023-06-10T08:53:48;15.38;39.73
78896;HTU21D;68284;59.124;37.910;2023-06-10T08:56:27;15.48;39.59
78896;HTU21D;68284;59.124;37.910;2023-06-10T08:58:54;15.68;39.32
78896;HTU21D;68284;59.124;37.910;2023-06-10T09:01:33;15.85;39.10
78896;HTU21D;68284;59.124;37.910;2023-06-10T09:04:03;15.98;38.69
78896;HTU21D;68284;59.124;37.910;2023-06-10T09:06:32;16.01;38.52
78896;HTU21D;68284;59.124;37.910;2023-06-10T09:09:00;16.02;38.36
78896;HTU21D;68284;59.124;37.910;2023-06-10T09:11:28;16.08;38.30
78896;HTU21D;68284;59.124;37.910;2023-06-10T09:13:56;16.13;38.53
78896;HTU21D;68284;59.124;37.910;2023-06-10T09:16:24;16.25;38.77
78896;HTU21D;68284;59.124;37.910;2023-06-10T09:18:51;16.41;38.68
78896;HTU21D;68284;59.124;37.910;2023-06-10T09:21:22;16.62;38.37
78896;HTU21D;68284;59.124;37.910;2023-06-10T09:23:50;16.84;37.98
78896;HTU21D;68284;59.124;37.910;2023-06-10T09:26:16;17.04;37.42
78896;HTU21D;68284;59.124;37.910;2023-06-10T09:28:44;17.15;36.77
78896;HTU21D;68284;59.124;37.910;2023-06-10T09:31:17;17.28;36.54
78896;HTU21D;68284;59.124;37.910;2023-06-10T09:33:50;17.38;36.61
78896;HTU21D;68284;59.124;37.910;2023-06-10T09:36:24;17.36;36.91
78896;HTU21D;68284;59.124;37.910;2023-06-10T09:38:50;17.32;37.24
78896;HTU21D;68284;59.124;37.910;2023-06-10T09:41:19;17.24;37.48
78896;HTU21D;68284;59.124;37.910;2023-06-10T09:43:48;17.10;37.72
78896;HTU21D;68284;59.124;37.910;2023-06-10T09:46:19;16.86;38.00
78896;HTU21D;68284;59.124;37.910;2023-06-10T09:48:47;16.58;38.66
78896;HTU21D;68284;59.124;37.910;2023-06-10T09:51:14;16.33;39.59
78896;HTU21D;68284;59.124;37.910;2023-06-10T09:53:42;15.98;41.17
78896;HTU21D;68284;59.124;37.910;2023-06-10T09:56:10;15.57;42.29
78896;HTU21D;68284;59.124;37.910;2023-06-10T09:58:38;15.25;42.97
78896;HTU21D;68284;59.124;37.910;2023-06-10T10:01:12;15.08;43.61
78896;HTU21D;68284;59.124;37.910;2023-06-10T10:03:50;15.10;43.96
78896;HTU21D;68284;59.124;37.910;2023-06-10T10:06:20;15.29;43.64
78896;HTU21D;68284;59.124;37.910;2023-06-10T10:08:51;15.66;42.86
78896;HTU21D;68284;59.124;37.910;2023-06-10T10:11:33;16.21;41.84
78896;HTU21D;68284;59.124;37.910;2023-06-10T10:14:04;16.69;40.45
78896;HTU21D;68284;59.124;37.910;2023-06-10T10:16:36;16.85;39.48
78896;HTU21D;68284;59.124;37.910;2023-06-10T10:19:16;16.82;39.21
78896;HTU21D;68284;59.124;37.910;2023-06-10T10:21:53;16.77;39.13
78896;HTU21D;68284;59.124;37.910;2023-06-10T10:24:21;16.75;39.08
78896;HTU21D;68284;59.124;37.910;2023-06-10T10:26:51;16.84;38.53
78896;HTU21D;68284;59.124;37.910;2023-06-10T10:29:46;16.99;37.76
78896;HTU21D;68284;59.124;37.910;2023-06-10T10:32:15;17.15;37.56
78896;HTU21D;68284;59.124;37.910;2023-06-10T10:35:08;17.17;36.87
78896;HTU21D;68284;59.124;37.910;2023-06-10T10:37:39;17.18;37.02
78896;HTU21D;68284;59.124;37.910;2023-06-10T10:40:12;17.16;37.35
78896;HTU21D;68284;59.124;37.910;2023-06-10T10:42:43;17.11;38.03
78896;HTU21D;68284;59.124;37.910;2023-06-10T10:45:16;16.92;38.57
78896;HTU21D;68284;59.124;37.910;2023-06-10T10:47:53;16.77;39.04
78896;HTU21D;68284;59.124;37.910;2023-06-10T10:50:22;16.76;39.03
78896;HTU21D;68284;59.124;37.910;2023-06-10T10:53:02;17.10;38.82
78896;HTU21D;68284;59.124;37.910;2023-06-10T10:55:32;17.68;37.84
78896;HTU21D;68284;59.124;37.910;2023-06-10T10:58:03;18.33;36.56
78896;HTU21D;68284;59.124;37.910;2023-06-10T11:00:36;19.08;35.09
78896;HTU21D;68284;59.124;37.910;2023-06-10T11:03:08;19.91;34.41
78896;HTU21D;68284;59.124;37.910;2023-06-10T11:05:40;20.70;33.98
78896;HTU21D;68284;59.124;37.910;2023-06-10T11:08:12;20.85;32.59
78896;HTU21D;68284;59.124;37.910;2023-06-10T11:10:40;20.55;31.66
78896;HTU21D;68284;59.124;37.910;2023-06-10T11:13:15;20.07;31.58
78896;HTU21D;68284;59.124;37.910;2023-06-10T11:15:44;19.77;31.21
78896;HTU21D;68284;59.124;37.910;2023-06-10T11:18:27;19.67;30.67
78896;HTU21D;68284;59.124;37.910;2023-06-10T11:21:04;19.40;30.87
78896;HTU21D;68284;59.124;37.910;2023-06-10T11:26:29;19.12;31.53
78896;HTU21D;68284;59.124;37.910;2023-06-10T11:29:05;19.18;31.51
78896;HTU21D;68284;59.124;37.910;2023-06-10T11:31:33;19.75;30.47
78896;HTU21D;68284;59.124;37.910;2023-06-10T11:34:06;20.51;29.50
78896;HTU21D;68284;59.124;37.910;2023-06-10T11:36:37;20.80;29.05
78896;HTU21D;68284;59.124;37.910;2023-06-10T11:39:06;20.70;29.06
78896;HTU21D;68284;59.124;37.910;2023-06-10T11:41:34;20.28;29.51
78896;HTU21D;68284;59.124;37.910;2023-06-10T11:44:08;19.66;30.19
78896;HTU21D;68284;59.124;37.910;2023-06-10T11:46:40;18.91;31.12
78896;HTU21D;68284;59.124;37.910;2023-06-10T11:49:17;18.25;32.05
78896;HTU21D;68284;59.124;37.910;2023-06-10T11:51:46;17.80;32.93
78896;HTU21D;68284;59.124;37.910;2023-06-10T11:54:23;17.50;33.64
78896;HTU21D;68284;59.124;37.910;2023-06-10T11:56:58;17.37;34.30
78896;HTU21D;68284;59.124;37.910;2023-06-10T11:59:27;17.26;34.76
78896;HTU21D;68284;59.124;37.910;2023-06-10T12:01:54;17.22;34.85
78896;HTU21D;68284;59.124;37.910;2023-06-10T12:04:21;17.28;34.77
78896;HTU21D;68284;59.124;37.910;2023-06-10T12:06:51;17.51;34.58
78896;HTU21D;68284;59.124;37.910;2023-06-10T12:09:25;17.87;34.14
78896;HTU21D;68284;59.124;37.910;2023-06-10T12:12:04;18.41;33.29
78896;HTU21D;68284;59.124;37.910;2023-06-10T12:14:58;19.48;32.65
78896;HTU21D;68284;59.124;37.910;2023-06-10T12:20:03;21.62;30.21
78896;HTU21D;68284;59.124;37.910;2023-06-10T12:22:43;21.79;28.89
78896;HTU21D;68284;59.124;37.910;2023-06-10T12:25:11;21.19;29.16
78896;HTU21D;68284;59.124;37.910;2023-06-10T12:27:50;20.37;29.49
78896;HTU21D;68284;59.124;37.910;2023-06-10T12:30:26;19.65;30.21
78896;HTU21D;68284;59.124;37.910;2023-06-10T12:33:00;19.12;30.76
78896;HTU21D;68284;59.124;37.910;2023-06-10T12:35:28;18.76;30.72
78896;HTU21D;68284;59.124;37.910;2023-06-10T12:40:36;18.49;31.12
78896;HTU21D;68284;59.124;37.910;2023-06-10T12:43:07;18.53;31.51
78896;HTU21D;68284;59.124;37.910;2023-06-10T12:45:43;18.84;31.23
78896;HTU21D;68284;59.124;37.910;2023-06-10T12:48:21;18.84;31.19
78896;HTU21D;68284;59.124;37.910;2023-06-10T12:50:58;18.65;31.56
78896;HTU21D;68284;59.124;37.910;2023-06-10T12:53:26;18.49;31.61
78896;HTU21D;68284;59.124;37.910;2023-06-10T12:55:53;18.41;31.41
78896;HTU21D;68284;59.124;37.910;2023-06-10T12:58:23;18.49;31.44
78896;HTU21D;68284;59.124;37.910;2023-06-10T13:01:00;18.81;31.37
78896;HTU21D;68284;59.124;37.910;2023-06-10T13:03:29;19.20;30.81
78896;HTU21D;68284;59.124;37.910;2023-06-10T13:06:00;19.70;30.29
78896;HTU21D;68284;59.124;37.910;2023-06-10T13:08:28;20.40;29.76
78896;HTU21D;68284;59.124;37.910;2023-06-10T13:10:57;20.96;29.00
78896;HTU21D;68284;59.124;37.910;2023-06-10T13:13:32;21.05;28.80
78896;HTU21D;68284;59.124;37.910;2023-06-10T13:16:02;21.25;28.43
78896;HTU21D;68284;59.124;37.910;2023-06-10T13:18:32;21.85;27.81
78896;HTU21D;68284;59.124;37.910;2023-06-10T13:21:08;22.97;25.78
78896;HTU21D;68284;59.124;37.910;2023-06-10T13:23:37;23.92;23.52
78896;HTU21D;68284;59.124;37.910;2023-06-10T13:26:06;24.80;23.21
78896;HTU21D;68284;59.124;37.910;2023-06-10T13:28:32;25.76;21.65
78896;HTU21D;68284;59.124;37.910;2023-06-10T13:31:04;26.58;20.10
78896;HTU21D;68284;59.124;37.910;2023-06-10T13:33:34;27.24;19.09
78896;HTU21D;68284;59.124;37.910;2023-06-10T13:36:02;27.24;18.67
78896;HTU21D;68284;59.124;37.910;2023-06-10T13:38:30;26.95;18.58
78896;HTU21D;68284;59.124;37.910;2023-06-10T13:40:59;26.76;18.79
78896;HTU21D;68284;59.124;37.910;2023-06-10T13:43:27;26.25;19.21
78896;HTU21D;68284;59.124;37.910;2023-06-10T13:45:53;26.05;19.38
78896;HTU21D;68284;59.124;37.910;2023-06-10T13:48:19;26.06;19.40
78896;HTU21D;68284;59.124;37.910;2023-06-10T13:50:50;25.53;20.05
78896;HTU21D;68284;59.124;37.910;2023-06-10T13:53:17;24.72;21.05
78896;HTU21D;68284;59.124;37.910;2023-06-10T13:55:43;23.70;22.16
78896;HTU21D;68284;59.124;37.910;2023-06-10T13:58:43;22.33;23.66
78896;HTU21D;68284;59.124;37.910;2023-06-10T14:01:12;21.27;25.00
78896;HTU21D;68284;59.124;37.910;2023-06-10T14:03:44;20.35;26.23
78896;HTU21D;68284;59.124;37.910;2023-06-10T14:06:12;19.74;27.27
78896;HTU21D;68284;59.124;37.910;2023-06-10T14:08:44;19.36;27.97
78896;HTU21D;68284;59.124;37.910;2023-06-10T14:11:12;19.37;27.88
78896;HTU21D;68284;59.124;37.910;2023-06-10T14:13:47;19.24;27.95
78896;HTU21D;68284;59.124;37.910;2023-06-10T14:16:16;18.95;28.24
78896;HTU21D;68284;59.124;37.910;2023-06-10T14:18:42;18.79;28.41
78896;HTU21D;68284;59.124;37.910;2023-06-10T14:21:08;19.05;28.29
78896;HTU21D;68284;59.124;37.910;2023-06-10T14:23:39;19.02;28.32
78896;HTU21D;68284;59.124;37.910;2023-06-10T14:26:11;18.83;28.66
78896;HTU21D;68284;59.124;37.910;2023-06-10T14:28:41;18.64;29.08
78896;HTU21D;68284;59.124;37.910;2023-06-10T14:31:08;18.35;29.35
78896;HTU21D;68284;59.124;37.910;2023-06-10T14:33:37;18.02;29.46
78896;HTU21D;68284;59.124;37.910;2023-06-10T14:36:18;17.76;29.77
78896;HTU21D;68284;59.124;37.910;2023-06-10T14:38:48;17.65;29.96
78896;HTU21D;68284;59.124;37.910;2023-06-10T14:41:19;17.55;30.10
78896;HTU21D;68284;59.124;37.910;2023-06-10T14:43:45;17.43;30.32
78896;HTU21D;68284;59.124;37.910;2023-06-10T14:46:13;17.46;30.54
78896;HTU21D;68284;59.124;37.910;2023-06-10T14:48:42;17.90;30.30
78896;HTU21D;68284;59.124;37.910;2023-06-10T14:51:09;18.34;29.81
78896;HTU21D;68284;59.124;37.910;2023-06-10T14:53:39;18.48;29.45
78896;HTU21D;68284;59.124;37.910;2023-06-10T14:56:07;18.39;29.15
78896;HTU21D;68284;59.124;37.910;2023-06-10T14:58:34;18.21;29.15
78896;HTU21D;68284;59.124;37.910;2023-06-10T15:01:01;18.50;28.98
78896;HTU21D;68284;59.124;37.910;2023-06-10T15:03:28;18.98;28.49
78896;HTU21D;68284;59.124;37.910;2023-06-10T15:05:55;19.21;28.10
78896;HTU21D;68284;59.124;37.910;2023-06-10T15:08:23;19.11;28.01
78896;HTU21D;68284;59.124;37.910;2023-06-10T15:10:49;18.82;28.34
78896;HTU21D;68284;59.124;37.910;2023-06-10T15:13:17;18.47;28.79
78896;HTU21D;68284;59.124;37.910;2023-06-10T15:15:44;18.14;29.29
78896;HTU21D;68284;59.124;37.910;2023-06-10T15:18:12;17.84;29.78
78896;HTU21D;68284;59.124;37.910;2023-06-10T15:20:38;17.58;30.25
78896;HTU21D;68284;59.124;37.910;2023-06-10T15:23:05;17.37;30.71
78896;HTU21D;68284;59.124;37.910;2023-06-10T15:25:31;17.18;31.12
78896;HTU21D;68284;59.124;37.910;2023-06-10T15:27:57;16.99;31.57
78896;HTU21D;68284;59.124;37.910;2023-06-10T15:30:26;16.82;31.88
78896;HTU21D;68284;59.124;37.910;2023-06-10T15:32:52;16.67;32.16
78896;HTU21D;68284;59.124;37.910;2023-06-10T15:35:19;16.60;32.41